Lake Villa, Illinois
Current Conditions -  °F | °C
As of 8:55 PM on Thursday 27 Nov 2014 (Local Time) from KUGN Reporting Station
Clear Clear  
Wind Chill:   Ceiling: Unl
Heat Index: 13°   Visibility: 10mi
Dew Point:   Wind: 5mph
Humidity: 77%   Direction: 310°NW
Pressure: 30.38"   Gusts: NA
Location:  42.42°N, 88.07°W
Report Text: KUGN 280255Z AUTO 31004KT 10SM CLR M11/M14 A3038 RMK AO2 SLP310 60000 T11061139 58003 $
Loading
Personal Weather Stations






























Interactive Weather Map New forecast layout! Learn more

10-Day Weather Forecast

Advertisements
Track Severe Weather on mobile